createdAt,value
2023-04-09T00:01:13.327Z,100735.94
2023-04-09T00:03:57.399Z,100730.41
2023-04-09T00:06:42.702Z,100724.56
2023-04-09T00:09:26.475Z,100736.63
2023-04-09T00:12:10.642Z,100750.16
2023-04-09T00:14:54.379Z,100742.66
2023-04-09T00:17:38.215Z,100740.56
2023-04-09T00:20:22.107Z,100740.38
2023-04-09T00:23:07.574Z,100749.84
2023-04-09T00:25:51.370Z,100746.75
2023-04-09T00:28:36.106Z,100749.16
2023-04-09T00:31:20.892Z,100747.88
2023-04-09T00:34:05.466Z,100733.22
2023-04-09T00:36:49.195Z,100720.78
2023-04-09T00:39:34.413Z,100735.53
2023-04-09T00:42:18.113Z,100741.06
2023-04-09T00:45:02.279Z,100738.69
2023-04-09T00:47:47.838Z,100741.22
2023-04-09T00:50:31.790Z,100731.81
2023-04-09T00:53:16.104Z,100726.13
2023-04-09T00:56:01.966Z,100732.22
2023-04-09T00:58:46.264Z,100668.09
2023-04-09T01:01:30.235Z,100679.84
2023-04-09T01:04:14.331Z,100714.28
2023-04-09T01:07:06.769Z,100710.66
2023-04-09T01:09:55.971Z,100711.59
2023-04-09T01:12:52.483Z,100713.84
2023-04-09T01:15:41.434Z,100717.19
2023-04-09T01:18:32.248Z,100714.53
2023-04-09T01:21:20.446Z,100714.03
2023-04-09T01:24:20.650Z,100717.06
2023-04-09T01:27:07.873Z,100704.16
2023-04-09T01:30:17.792Z,100713.84
2023-04-09T01:33:02.347Z,100710.25
2023-04-09T01:35:48.451Z,100688.78
2023-04-09T01:38:34.744Z,100698.19
2023-04-09T01:41:21.683Z,100711.34
2023-04-09T01:44:07.075Z,100711.66
2023-04-09T01:46:53.706Z,100702.75
2023-04-09T01:49:38.770Z,100712.75
2023-04-09T01:52:22.881Z,100704.66
2023-04-09T01:55:07.694Z,100708.72
2023-04-09T01:57:51.408Z,100699.88
2023-04-09T02:00:39.421Z,100703.00
2023-04-09T02:03:26.995Z,100695.09
2023-04-09T02:06:18.366Z,100698.28
2023-04-09T02:09:04.184Z,100667.53
2023-04-09T02:11:49.776Z,100708.50
2023-04-09T02:14:34.459Z,100708.41
2023-04-09T02:17:18.519Z,100687.41
2023-04-09T02:20:03.872Z,100697.09
2023-04-09T02:22:47.912Z,100694.75
2023-04-09T02:25:31.629Z,100699.53
2023-04-09T02:28:15.567Z,100701.22
2023-04-09T02:30:59.348Z,100704.66
2023-04-09T02:33:43.242Z,100592.59
2023-04-09T02:36:28.978Z,100701.88
2023-04-09T02:39:12.799Z,100697.25
2023-04-09T02:41:58.010Z,100691.22
2023-04-09T02:44:44.662Z,100706.50
2023-04-09T02:47:30.658Z,100696.44
2023-04-09T02:50:15.157Z,100695.72
2023-04-09T02:53:06.405Z,100695.91
2023-04-09T02:55:50.323Z,100695.13
2023-04-09T02:58:34.132Z,100697.44
2023-04-09T03:01:17.904Z,100699.88
2023-04-09T03:04:02.163Z,100698.13
2023-04-09T03:06:46.195Z,100663.41
2023-04-09T03:09:31.747Z,100676.63
2023-04-09T03:12:15.582Z,100688.53
2023-04-09T03:14:59.551Z,100689.56
2023-04-09T03:17:43.367Z,100678.72
2023-04-09T03:20:27.223Z,100688.41
2023-04-09T03:23:11.749Z,100678.88
2023-04-09T03:26:06.677Z,100697.94
2023-04-09T03:28:57.397Z,100696.09
2023-04-09T03:31:41.412Z,100697.69
2023-04-09T03:34:25.771Z,100699.50
2023-04-09T03:37:13.914Z,100691.13
2023-04-09T03:39:57.638Z,100691.81
2023-04-09T03:42:46.324Z,100693.78
2023-04-09T03:45:32.684Z,100694.75
2023-04-09T03:48:30.500Z,100696.84
2023-04-09T03:51:15.819Z,100686.88
2023-04-09T03:54:05.653Z,100690.91
2023-04-09T03:56:50.676Z,100697.09
2023-04-09T03:59:40.672Z,100706.28
2023-04-09T04:02:26.940Z,100703.81
2023-04-09T04:05:17.068Z,100711.50
2023-04-09T04:08:04.924Z,100715.75
2023-04-09T04:10:48.985Z,100717.38
2023-04-09T04:13:35.035Z,100707.50
2023-04-09T04:16:24.664Z,100690.44
2023-04-09T04:19:09.850Z,100706.44
2023-04-09T04:21:59.902Z,100723.69
2023-04-09T04:24:44.100Z,100693.81
2023-04-09T04:27:29.109Z,100707.81
2023-04-09T04:30:13.152Z,100707.69
2023-04-09T04:33:13.650Z,100715.72
2023-04-09T04:36:09.727Z,100695.59
2023-04-09T04:38:59.764Z,100711.13
2023-04-09T04:41:48.916Z,100698.44
2023-04-09T04:44:38.090Z,100711.19
2023-04-09T04:47:29.691Z,100714.13
2023-04-09T04:50:16.773Z,100710.97
2023-04-09T04:53:17.409Z,100719.19
2023-04-09T04:56:06.709Z,100720.50
2023-04-09T04:58:50.919Z,100716.00
2023-04-09T05:01:36.978Z,100719.78
2023-04-09T05:04:25.144Z,100724.69
2023-04-09T05:07:10.580Z,100721.34
2023-04-09T05:10:02.117Z,100723.56
2023-04-09T05:12:52.148Z,100717.66
2023-04-09T05:15:44.025Z,100718.41
2023-04-09T05:18:27.869Z,100715.66
2023-04-09T05:21:11.653Z,100711.19
2023-04-09T05:24:01.959Z,100718.41
2023-04-09T05:26:48.903Z,100735.69
2023-04-09T05:29:32.970Z,100734.97
2023-04-09T05:32:17.552Z,100737.66
2023-04-09T05:35:01.655Z,100732.00
2023-04-09T05:37:47.446Z,100735.75
2023-04-09T05:40:32.638Z,100695.75
2023-04-09T05:43:17.346Z,100734.97
2023-04-09T05:46:01.330Z,100720.41
2023-04-09T05:48:45.359Z,100695.66
2023-04-09T05:51:29.209Z,100743.44
2023-04-09T05:54:14.367Z,100737.69
2023-04-09T05:56:59.745Z,100739.22
2023-04-09T05:59:43.623Z,100727.28
2023-04-09T06:02:28.729Z,100737.75
2023-04-09T06:05:12.572Z,100733.84
2023-04-09T06:07:56.512Z,100741.75
2023-04-09T06:10:41.445Z,100741.34
2023-04-09T06:13:27.089Z,100706.47
2023-04-09T06:16:11.555Z,100740.97
2023-04-09T06:18:57.014Z,100751.59
2023-04-09T06:21:40.998Z,100766.50
2023-04-09T06:24:25.022Z,100753.13
2023-04-09T06:27:09.004Z,100761.09
2023-04-09T06:29:54.282Z,100768.19
2023-04-09T06:32:50.892Z,100768.41
2023-04-09T06:35:38.235Z,100772.69
2023-04-09T06:38:21.973Z,100780.28
2023-04-09T06:41:08.578Z,100776.00
2023-04-09T06:43:52.803Z,100759.47
2023-04-09T06:46:38.559Z,100741.81
2023-04-09T06:49:22.402Z,100777.06
2023-04-09T06:52:07.412Z,100766.50
2023-04-09T06:54:51.901Z,100745.34
2023-04-09T06:57:35.944Z,100772.69
2023-04-09T07:00:19.745Z,100769.41
2023-04-09T07:03:05.792Z,100767.75
2023-04-09T07:05:50.669Z,100761.31
2023-04-09T07:08:34.405Z,100610.91
2023-04-09T07:11:18.568Z,100761.28
2023-04-09T07:14:02.580Z,100761.88
2023-04-09T07:16:47.016Z,100764.22
2023-04-09T07:19:32.556Z,100743.34
2023-04-09T07:22:16.729Z,100756.97
2023-04-09T07:25:00.820Z,100761.53
2023-04-09T07:27:44.930Z,100743.56
2023-04-09T07:30:29.211Z,100762.41
2023-04-09T07:33:13.075Z,100752.41
2023-04-09T07:35:58.578Z,100763.56
2023-04-09T07:38:42.715Z,100754.63
2023-04-09T07:41:26.644Z,100763.91
2023-04-09T07:44:10.362Z,100763.00
2023-04-09T07:46:54.245Z,100760.22
2023-04-09T07:49:38.425Z,100759.97
2023-04-09T07:52:24.144Z,100762.13
2023-04-09T07:55:08.630Z,100753.81
2023-04-09T07:57:53.473Z,100761.53
2023-04-09T08:00:37.578Z,100762.13
2023-04-09T08:03:22.807Z,100753.19
2023-04-09T08:06:07.463Z,100759.19
2023-04-09T08:08:53.532Z,100757.53
2023-04-09T08:11:37.637Z,100757.66
2023-04-09T08:14:21.504Z,100751.50
2023-04-09T08:17:05.891Z,100753.81
2023-04-09T08:19:49.988Z,100744.78
2023-04-09T08:22:34.685Z,100733.34
2023-04-09T08:25:20.833Z,100750.63
2023-04-09T08:28:04.768Z,100704.53
2023-04-09T08:30:48.902Z,100755.47
2023-04-09T08:33:33.076Z,100747.25
2023-04-09T08:36:16.917Z,100764.13
2023-04-09T08:39:01.027Z,100750.63
2023-04-09T08:41:47.701Z,100770.13
2023-04-09T08:44:31.752Z,100771.91
2023-04-09T08:47:16.172Z,100767.06
2023-04-09T08:50:00.988Z,100767.69
2023-04-09T08:52:47.951Z,100760.59
2023-04-09T08:55:34.584Z,100763.09
2023-04-09T08:58:19.964Z,100759.72
2023-04-09T09:01:04.110Z,100761.72
2023-04-09T09:03:57.345Z,100755.03
2023-04-09T09:06:42.928Z,100746.94
2023-04-09T09:09:27.143Z,100742.31
2023-04-09T09:12:11.237Z,100748.00
2023-04-09T09:14:56.539Z,100744.19
2023-04-09T09:17:56.010Z,100746.03
2023-04-09T09:20:40.700Z,100749.88
2023-04-09T09:23:36.986Z,100750.88
2023-04-09T09:26:24.721Z,100752.59
2023-04-09T09:29:09.349Z,100752.72
2023-04-09T09:31:56.519Z,100746.53
2023-04-09T09:34:40.574Z,100733.94
2023-04-09T09:37:28.167Z,100743.63
2023-04-09T09:40:27.978Z,100748.91
2023-04-09T09:43:13.454Z,100739.41
2023-04-09T09:45:59.276Z,100746.25
2023-04-09T09:48:45.202Z,100736.34
2023-04-09T09:51:30.044Z,100726.56
2023-04-09T09:54:16.761Z,100727.66
2023-04-09T09:57:03.845Z,100723.53
2023-04-09T09:59:55.327Z,100726.47
2023-04-09T10:02:45.699Z,100712.38
2023-04-09T10:05:32.362Z,100665.31
2023-04-09T10:08:17.236Z,100702.53
2023-04-09T10:11:01.992Z,100714.78
2023-04-09T10:13:53.885Z,100690.63
2023-04-09T10:16:38.649Z,100715.56
2023-04-09T10:19:24.012Z,100719.78
2023-04-09T10:22:12.132Z,100712.22
2023-04-09T10:24:56.030Z,100713.63
2023-04-09T10:27:39.757Z,100704.69
2023-04-09T10:30:33.528Z,100705.88
2023-04-09T10:33:26.494Z,100705.88
2023-04-09T10:36:12.440Z,100711.41
2023-04-09T10:38:57.616Z,100704.19
2023-04-09T10:41:42.157Z,100687.41
2023-04-09T10:44:27.570Z,100685.50
2023-04-09T10:47:13.193Z,100694.13
2023-04-09T10:49:57.122Z,100699.84
2023-04-09T10:52:42.311Z,100687.56
2023-04-09T10:55:36.223Z,100685.75
2023-04-09T10:58:20.445Z,100679.31
2023-04-09T11:01:04.411Z,100676.50
2023-04-09T11:04:09.487Z,100666.75
2023-04-09T11:06:56.074Z,100665.69
2023-04-09T11:09:42.647Z,100663.22
2023-04-09T11:12:28.145Z,100663.28
2023-04-09T11:15:18.414Z,100661.28
2023-04-09T11:18:03.044Z,100647.19
2023-04-09T11:20:47.501Z,100648.16
2023-04-09T11:23:33.330Z,100629.91
2023-04-09T11:26:17.199Z,100637.66
2023-04-09T11:29:06.492Z,100642.28
2023-04-09T11:31:50.438Z,100640.56
2023-04-09T11:34:34.545Z,100629.91
2023-04-09T11:37:18.457Z,100628.84
2023-04-09T11:40:02.368Z,100623.59
2023-04-09T11:42:48.824Z,100626.50
2023-04-09T11:45:34.132Z,100626.03
2023-04-09T11:48:19.304Z,100618.06
2023-04-09T11:51:04.145Z,100585.84
2023-04-09T11:53:51.205Z,100609.66
2023-04-09T11:56:37.706Z,100604.84
2023-04-09T11:59:21.683Z,100574.72
2023-04-09T12:02:07.595Z,100601.91
2023-04-09T12:04:51.824Z,100606.78
2023-04-09T12:07:35.945Z,100604.34
2023-04-09T12:10:20.350Z,100601.19
2023-04-09T12:13:06.959Z,100603.44
2023-04-09T12:15:51.507Z,100599.09
2023-04-09T12:18:38.890Z,100574.13
2023-04-09T12:21:26.223Z,100591.63
2023-04-09T12:24:09.922Z,100564.06
2023-04-09T12:26:54.008Z,100579.94
2023-04-09T12:29:37.856Z,100578.06
2023-04-09T12:32:21.711Z,100585.78
2023-04-09T12:35:07.583Z,100584.56
2023-04-09T12:37:52.042Z,100574.72
2023-04-09T12:40:37.022Z,100568.81
2023-04-09T12:43:21.067Z,100591.13
2023-04-09T12:46:05.321Z,100593.03
2023-04-09T12:48:49.102Z,100587.00
2023-04-09T12:51:34.389Z,100596.97
2023-04-09T12:54:18.695Z,100588.72
2023-04-09T12:57:02.481Z,100584.00
2023-04-09T12:59:46.200Z,100552.56
2023-04-09T13:02:30.350Z,100572.34
2023-04-09T13:05:14.434Z,100525.59
2023-04-09T13:07:59.634Z,100570.84
2023-04-09T13:10:43.435Z,100571.84
2023-04-09T13:13:28.711Z,100568.16
2023-04-09T13:16:12.446Z,100563.19
2023-04-09T13:18:56.676Z,100569.56
2023-04-09T13:21:40.686Z,100560.88
2023-04-09T13:24:26.104Z,100547.25
2023-04-09T13:27:10.032Z,100497.69
2023-04-09T13:29:54.058Z,100533.13
2023-04-09T13:32:38.169Z,100503.41
2023-04-09T13:35:22.249Z,100503.13
2023-04-09T13:38:06.162Z,100535.94
2023-04-09T13:40:51.310Z,100498.00
2023-04-09T13:43:35.154Z,100543.78
2023-04-09T13:46:19.039Z,100542.84
2023-04-09T13:49:03.464Z,100541.00
2023-04-09T13:51:47.873Z,100544.19
2023-04-09T13:54:31.788Z,100553.91
2023-04-09T13:57:17.231Z,100542.16
2023-04-09T14:00:03.961Z,100543.44
2023-04-09T14:02:48.988Z,100549.22
2023-04-09T14:05:33.646Z,100537.97
2023-04-09T14:08:17.631Z,100511.47
2023-04-09T14:11:01.577Z,100548.38
2023-04-09T14:13:47.156Z,100548.31
2023-04-09T14:16:31.363Z,100543.13
2023-04-09T14:19:15.304Z,100524.81
2023-04-09T14:21:59.212Z,100546.22
2023-04-09T14:24:43.080Z,100551.66
2023-04-09T14:27:27.322Z,100546.72
2023-04-09T14:30:14.034Z,100542.41
2023-04-09T14:32:58.237Z,100556.31
2023-04-09T14:35:42.114Z,100545.44
2023-04-09T14:38:26.163Z,100562.38
2023-04-09T14:41:09.940Z,100559.63
2023-04-09T14:43:53.652Z,100548.66
2023-04-09T14:46:38.801Z,100542.78
2023-04-09T14:49:22.881Z,100534.84
2023-04-09T14:52:06.819Z,100549.25
2023-04-09T14:54:50.670Z,100526.66
2023-04-09T14:57:34.387Z,100550.00
2023-04-09T15:00:18.430Z,100554.56
2023-04-09T15:03:03.997Z,100552.69
2023-04-09T15:05:48.126Z,100554.75
2023-04-09T15:08:31.999Z,100560.81
2023-04-09T15:11:17.383Z,100557.81
2023-04-09T15:14:01.542Z,100539.06
2023-04-09T15:16:45.686Z,100549.72
2023-04-09T15:19:32.777Z,100539.28
2023-04-09T15:22:16.595Z,100548.25
2023-04-09T15:25:00.632Z,100551.09
2023-04-09T15:27:44.344Z,100526.81
2023-04-09T15:30:28.335Z,100554.72
2023-04-09T15:33:12.106Z,100553.66
2023-04-09T15:35:57.279Z,100550.47
2023-04-09T15:38:41.114Z,100547.88
2023-04-09T15:41:25.286Z,100546.66
2023-04-09T15:44:09.517Z,100542.09
2023-04-09T15:46:53.422Z,100545.97
2023-04-09T15:49:37.760Z,100524.59
2023-04-09T15:52:23.098Z,100515.59
2023-04-09T15:55:07.588Z,100525.00
2023-04-09T15:57:51.537Z,100533.44
2023-04-09T16:00:35.931Z,100534.09
2023-04-09T16:03:20.715Z,100537.53
2023-04-09T16:06:07.474Z,100545.72
2023-04-09T16:08:52.956Z,100501.66
2023-04-09T16:11:37.594Z,100530.25
2023-04-09T16:14:21.466Z,100538.22
2023-04-09T16:17:05.436Z,100538.81
2023-04-09T16:19:49.328Z,100539.84
2023-04-09T16:22:35.058Z,100537.88
2023-04-09T16:25:20.492Z,100507.63
2023-04-09T16:28:04.593Z,100529.78
2023-04-09T16:30:48.769Z,100536.44
2023-04-09T16:33:32.955Z,100540.19
2023-04-09T16:36:16.976Z,100543.97
2023-04-09T16:39:01.250Z,100425.53
2023-04-09T16:41:46.536Z,100535.91
2023-04-09T16:44:30.741Z,100498.59
2023-04-09T16:47:14.576Z,100548.97
2023-04-09T16:49:58.613Z,100551.22
2023-04-09T16:52:43.307Z,100547.16
2023-04-09T16:55:27.178Z,100546.97
2023-04-09T16:58:12.396Z,100520.91
2023-04-09T17:00:56.531Z,100506.03
2023-04-09T17:03:40.627Z,100549.13
2023-04-09T17:06:24.424Z,100559.31
2023-04-09T17:09:08.508Z,100560.81
2023-04-09T17:11:53.065Z,100558.13
2023-04-09T17:14:38.934Z,100516.09
2023-04-09T17:17:22.898Z,100573.00
2023-04-09T17:20:07.904Z,100564.84
2023-04-09T17:22:51.628Z,100564.41
2023-04-09T17:25:35.483Z,100558.78
2023-04-09T17:28:19.771Z,100558.72
2023-04-09T17:31:05.229Z,100563.56
2023-04-09T17:33:49.018Z,100568.16
2023-04-09T17:36:33.392Z,100568.00
2023-04-09T17:39:17.237Z,100553.19
2023-04-09T17:42:01.903Z,100577.38
2023-04-09T17:44:46.137Z,100581.53
2023-04-09T17:47:31.263Z,100592.81
2023-04-09T17:50:15.352Z,100566.97
2023-04-09T17:52:59.159Z,100581.97
2023-04-09T17:55:47.913Z,100591.84
2023-04-09T17:58:31.910Z,100581.13
2023-04-09T18:01:15.872Z,100552.03
2023-04-09T18:04:01.599Z,100580.38
2023-04-09T18:06:45.812Z,100583.44
2023-04-09T18:09:29.598Z,100580.16
2023-04-09T18:12:13.342Z,100582.47
2023-04-09T18:14:57.240Z,100579.31
2023-04-09T18:17:41.209Z,100576.34
2023-04-09T18:20:26.484Z,100575.88
2023-04-09T18:23:10.753Z,100583.91
2023-04-09T18:25:54.656Z,100585.72
2023-04-09T18:28:38.531Z,100586.84
2023-04-09T18:31:22.556Z,100579.84
2023-04-09T18:34:06.878Z,100584.06
2023-04-09T18:36:52.706Z,100581.38
2023-04-09T18:39:36.453Z,100584.44
2023-04-09T18:42:20.208Z,100563.53
2023-04-09T18:45:04.110Z,100575.38
2023-04-09T18:47:48.012Z,100577.50
2023-04-09T18:50:32.494Z,100585.25
2023-04-09T18:53:17.789Z,100582.34
2023-04-09T18:56:01.568Z,100547.06
2023-04-09T18:58:45.385Z,100591.44
2023-04-09T19:01:29.626Z,100588.06
2023-04-09T19:04:13.619Z,100563.41
2023-04-09T19:06:57.579Z,100587.97
2023-04-09T19:09:43.528Z,100588.75
2023-04-09T19:12:28.084Z,100582.16
2023-04-09T19:15:12.648Z,100573.22
2023-04-09T19:17:57.597Z,100549.63
2023-04-09T19:20:41.546Z,100378.63
2023-04-09T19:23:25.750Z,100578.78
2023-04-09T19:26:11.143Z,100553.72
2023-04-09T19:28:55.301Z,100532.44
2023-04-09T19:31:39.564Z,100577.97
2023-04-09T19:34:23.382Z,100574.88
2023-04-09T19:37:07.573Z,100571.81
2023-04-09T19:39:51.396Z,100564.91
2023-04-09T19:42:36.665Z,100563.47
2023-04-09T19:45:20.531Z,100540.44
2023-04-09T19:48:04.460Z,100539.84
2023-04-09T19:50:49.045Z,100555.66
2023-04-09T19:53:33.019Z,100540.41
2023-04-09T19:56:16.988Z,100551.19
2023-04-09T19:59:02.363Z,100544.69
2023-04-09T20:01:46.731Z,100543.31
2023-04-09T20:04:31.213Z,100556.00
2023-04-09T20:07:15.617Z,100505.16
2023-04-09T20:09:59.532Z,100547.72
2023-04-09T20:12:43.416Z,100537.22
2023-04-09T20:15:28.816Z,100538.19
2023-04-09T20:18:12.754Z,100535.69
2023-04-09T20:20:56.717Z,100535.03
2023-04-09T20:23:40.522Z,100526.09
2023-04-09T20:26:24.281Z,100535.16
2023-04-09T20:29:10.194Z,100539.50
2023-04-09T20:31:57.836Z,100523.19
2023-04-09T20:34:41.659Z,100529.09
2023-04-09T20:37:25.659Z,100521.94
2023-04-09T20:40:10.206Z,100518.75
2023-04-09T20:42:54.029Z,100520.78
2023-04-09T20:45:37.859Z,100518.94
2023-04-09T20:48:23.085Z,100467.97
2023-04-09T20:51:10.905Z,100513.03
2023-04-09T20:53:54.675Z,100502.84
2023-04-09T20:56:38.428Z,100498.78
2023-04-09T20:59:22.161Z,100509.28
2023-04-09T21:02:06.075Z,100507.13
2023-04-09T21:04:51.535Z,100503.28
2023-04-09T21:07:35.340Z,100488.78
2023-04-09T21:10:19.302Z,100493.66
2023-04-09T21:13:03.141Z,100485.97
2023-04-09T21:15:47.010Z,100492.81
2023-04-09T21:18:31.014Z,100497.06
2023-04-09T21:21:16.203Z,100501.44
2023-04-09T21:23:59.968Z,100498.78
2023-04-09T21:26:49.970Z,100491.22
2023-04-09T21:29:35.962Z,100496.25
2023-04-09T21:32:19.665Z,100487.78
2023-04-09T21:35:03.530Z,100493.59
2023-04-09T21:37:48.823Z,100473.56
2023-04-09T21:40:32.858Z,100495.88
2023-04-09T21:43:16.694Z,100501.03
2023-04-09T21:46:00.600Z,100449.94
2023-04-09T21:48:44.632Z,100501.34
2023-04-09T21:51:28.866Z,100499.75
2023-04-09T21:54:14.079Z,100492.75
2023-04-09T21:56:58.342Z,100494.69
2023-04-09T21:59:42.305Z,100477.03
2023-04-09T22:02:26.158Z,100494.06
2023-04-09T22:05:10.942Z,100484.38
2023-04-09T22:07:54.761Z,100496.09
2023-04-09T22:10:40.180Z,100498.47
2023-04-09T22:13:24.002Z,100494.06
2023-04-09T22:16:08.840Z,100494.16
2023-04-09T22:18:53.359Z,100492.44
2023-04-09T22:21:37.313Z,100490.19
2023-04-09T22:24:26.694Z,100492.63
2023-04-09T22:27:13.098Z,100495.97
2023-04-09T22:29:56.922Z,100489.22
2023-04-09T22:32:40.724Z,100489.16
2023-04-09T22:35:24.755Z,100479.78
2023-04-09T22:38:09.032Z,100479.88
2023-04-09T22:40:53.028Z,100473.88
2023-04-09T22:43:38.143Z,100467.59
2023-04-09T22:46:22.456Z,100469.34
2023-04-09T22:49:06.787Z,100455.38
2023-04-09T22:51:50.864Z,100456.91
2023-04-09T22:54:34.682Z,100456.38
2023-04-09T22:57:18.496Z,100459.66
2023-04-09T23:00:05.230Z,100454.53
2023-04-09T23:02:50.971Z,100463.72
2023-04-09T23:05:35.224Z,100455.16
2023-04-09T23:08:19.108Z,100455.38
2023-04-09T23:11:03.030Z,100426.34
2023-04-09T23:13:47.012Z,100408.72
2023-04-09T23:16:32.319Z,100447.47
2023-04-09T23:19:16.384Z,100420.66
2023-04-09T23:22:00.348Z,100413.47
2023-04-09T23:24:44.111Z,100425.78
2023-04-09T23:27:28.903Z,100383.38
2023-04-09T23:30:16.925Z,100417.13
2023-04-09T23:33:02.475Z,100399.47
2023-04-09T23:35:46.852Z,100396.41
2023-04-09T23:38:30.877Z,100410.63
2023-04-09T23:41:15.087Z,100405.63
2023-04-09T23:43:58.847Z,100371.66
2023-04-09T23:46:42.750Z,100393.06
2023-04-09T23:49:29.763Z,100398.75
2023-04-09T23:52:13.749Z,100400.06
2023-04-09T23:54:57.574Z,100392.66
2023-04-09T23:57:41.447Z,100398.56
